Time;durP1;ratioP1;P1;durP2;ratioP2;P2;SDS_P1;SDS_P2;PMS_P1;PMS_P2;Temp;Humidity;BMP_temperature;BMP_pressure;BME280_temperature;BME280_humidity;BME280_pressure;Samples;Min_cycle;Max_cycle;Signal;HPM_P1;HPM_P2
2022/05/26 00:01:39;;;;;;;21.60;11.95;;;;;;;18.88;100.00;101577.34;5026864;28;20068;-51
2022/05/26 00:04:05;;;;;;;24.30;12.48;;;;;;;18.63;100.00;101575.63;5027560;28;20030;-53
2022/05/26 00:06:31;;;;;;;20.08;12.65;;;;;;;18.58;100.00;101575.50;5028263;28;20087;-53
2022/05/26 00:08:58;;;;;;;21.02;13.30;;;;;;;18.83;100.00;101574.50;5028940;28;20093;-53
2022/05/26 00:11:31;;;;;;;22.07;13.60;;;;;;;19.01;100.00;101569.03;5030634;28;20041;-53
2022/05/26 00:13:57;;;;;;;25.53;13.43;;;;;;;18.74;100.00;101574.84;5025261;28;20272;-51
2022/05/26 00:16:23;;;;;;;23.90;14.00;;;;;;;19.28;100.00;101576.69;5030600;28;20263;-52
2022/05/26 00:18:49;;;;;;;26.83;13.55;;;;;;;19.16;100.00;101584.84;5033682;28;20343;-55
2022/05/26 00:21:16;;;;;;;23.98;13.45;;;;;;;19.09;100.00;101583.28;5030785;28;20053;-55
2022/05/26 00:23:42;;;;;;;20.07;12.63;;;;;;;18.74;100.00;101580.28;5017456;28;20110;-50
2022/05/26 00:26:08;;;;;;;24.52;14.05;;;;;;;19.16;100.00;101576.69;5028345;28;20275;-51
2022/05/26 00:28:34;;;;;;;27.98;13.07;;;;;;;18.73;100.00;101584.03;5032830;28;20053;-53
2022/05/26 00:31:00;;;;;;;23.75;12.30;;;;;;;18.95;100.00;101585.38;5028346;28;20073;-54
2022/05/26 00:33:26;;;;;;;19.92;12.43;;;;;;;19.05;100.00;101585.66;5016608;28;20044;-53
2022/05/26 00:35:52;;;;;;;33.53;14.00;;;;;;;18.97;100.00;101584.09;5021602;28;20041;-55
2022/05/26 00:38:18;;;;;;;23.92;12.82;;;;;;;18.87;100.00;101594.66;5029020;28;20272;-53
2022/05/26 00:40:45;;;;;;;17.45;12.20;;;;;;;19.15;100.00;101595.94;5032825;28;20030;-52
2022/05/26 00:43:11;;;;;;;;;;;;;;;18.97;100.00;101585.97;5028393;28;20046;-54
2022/05/26 00:45:40;;;;;;;29.17;13.50;;;;;;;19.65;100.00;101591.06;5032825;28;19988;-54
2022/05/26 00:48:11;;;;;;;28.57;13.37;;;;;;;19.59;100.00;101595.56;5032854;28;20283;-51
2022/05/26 00:50:48;;;;;;;27.70;13.93;;;;;;;19.71;100.00;101598.25;5033001;28;20275;-52
2022/05/26 00:53:21;;;;;;;24.17;12.37;;;;;;;19.01;100.00;101590.72;5030583;28;20278;-52
2022/05/26 00:55:54;;;;;;;26.60;12.33;;;;;;;18.62;100.00;101587.53;5029381;28;20272;-53
2022/05/26 00:58:28;;;;;;;23.60;11.77;;;;;;;19.06;100.00;101588.13;5029305;28;20346;-54
2022/05/26 01:00:57;;;;;;;25.77;11.27;;;;;;;18.75;100.00;101583.78;5014275;28;20299;-54
2022/05/26 01:03:48;;;;;;;22.77;11.63;;;;;;;18.70;100.00;101586.38;5029679;28;20264;-53
2022/05/26 01:06:38;;;;;;;30.97;11.70;;;;;;;18.76;100.00;101593.56;5018452;28;20306;-50
2022/05/26 01:09:05;;;;;;;25.70;11.50;;;;;;;19.15;100.00;101598.63;5018830;28;20351;-54
2022/05/26 01:11:35;;;;;;;23.17;11.07;;;;;;;18.78;100.00;101591.47;5019946;28;20263;-55
2022/05/26 01:14:12;;;;;;;25.37;11.73;;;;;;;18.84;100.00;101597.84;5020042;28;20276;-54
2022/05/26 01:17:03;;;;;;;21.85;10.05;;;;;;;18.43;100.00;101589.47;5032665;28;20279;-55
2022/05/26 01:19:49;;;;;;;20.97;10.20;;;;;;;19.11;100.00;101598.28;5023856;28;20058;-52
2022/05/26 01:22:43;;;;;;;28.00;11.67;;;;;;;19.09;100.00;101586.00;5022994;28;20328;-51
2022/05/26 01:25:46;;;;;;;28.07;10.77;;;;;;;19.30;100.00;101609.03;5024815;28;20333;-52
2022/05/26 01:28:48;;;;;;;31.53;11.57;;;;;;;18.94;100.00;101608.09;5032414;28;20270;-51
2022/05/26 01:31:31;;;;;;;27.13;10.23;;;;;;;19.42;100.00;101619.88;5019906;28;20279;-50
2022/05/26 01:34:33;;;;;;;29.07;11.13;;;;;;;18.98;100.00;101642.69;5032316;28;20271;-50
2022/05/26 01:37:21;;;;;;;31.33;11.50;;;;;;;18.81;100.00;101614.56;5019210;28;20263;-51
2022/05/26 01:39:59;;;;;;;29.27;10.77;;;;;;;18.89;100.00;101608.81;5020685;28;20283;-53
2022/05/26 01:43:02;;;;;;;28.93;10.80;;;;;;;18.56;100.00;101621.78;5031861;28;20298;-52
2022/05/26 01:45:54;;;;;;;32.03;10.70;;;;;;;19.03;100.00;101618.41;5045502;28;20291;-49
2022/05/26 01:48:25;;;;;;;25.77;11.07;;;;;;;19.08;100.00;101617.72;5021583;28;20313;-52
2022/05/26 01:51:00;;;;;;;28.67;10.13;;;;;;;18.81;100.00;101622.69;5013165;28;20306;-49
2022/05/26 01:54:01;;;;;;;22.20;10.93;;;;;;;18.99;100.00;101617.22;5030880;28;20259;-48
2022/05/26 01:56:47;;;;;;;28.50;10.63;;;;;;;18.70;100.00;101611.59;5031491;28;20282;-50
2022/05/26 01:59:37;;;;;;;36.23;11.90;;;;;;;18.69;100.00;101633.50;5025708;28;20260;-48
2022/05/26 02:02:11;;;;;;;37.03;11.23;;;;;;;18.75;100.00;101622.56;5027151;28;20291;-49
2022/05/26 02:04:42;;;;;;;30.40;11.03;;;;;;;18.74;100.00;101623.63;5027722;28;20306;-50
2022/05/26 02:07:16;;;;;;;23.23;10.67;;;;;;;18.88;100.00;101632.38;5023448;28;20275;-46
2022/05/26 02:09:44;;;;;;;27.07;10.60;;;;;;;19.14;100.00;101634.91;5023086;28;20268;-47
2022/05/26 02:12:17;;;;;;;37.17;11.60;;;;;;;19.06;100.00;101638.81;5021804;28;20280;-46
2022/05/26 02:14:50;;;;;;;34.00;12.17;;;;;;;18.91;100.00;101640.03;5022066;28;20264;-50
2022/05/26 02:17:20;;;;;;;29.40;11.23;;;;;;;18.73;100.00;101640.94;5026667;28;20264;-48
2022/05/26 02:19:56;;;;;;;36.93;12.30;;;;;;;18.65;100.00;101640.44;5018898;28;20307;-48
2022/05/26 02:22:25;;;;;;;;;;;;;;;18.76;100.00;101643.19;5016939;28;20347;-48
2022/05/26 02:24:51;;;;;;;27.60;11.87;;;;;;;18.85;100.00;101642.84;5015490;28;20066;-50
2022/05/26 02:27:16;;;;;;;33.17;11.03;;;;;;;18.56;100.00;101648.88;5025082;28;20279;-48
2022/05/26 02:29:51;;;;;;;31.90;11.40;;;;;;;19.20;100.00;101642.94;5021156;28;20049;-50
2022/05/26 02:32:28;;;;;;;32.57;11.17;;;;;;;18.66;100.00;101652.94;5018759;28;20081;-53
2022/05/26 02:34:58;;;;;;;27.63;11.43;;;;;;;18.63;100.00;101654.19;5014401;28;20264;-51
2022/05/26 02:37:25;;;;;;;33.90;12.60;;;;;;;18.93;100.00;101642.53;5023694;28;20272;-53
2022/05/26 02:39:52;;;;;;;33.07;10.90;;;;;;;18.77;100.00;101649.41;5020709;28;20275;-48
2022/05/26 02:42:18;;;;;;;39.38;11.63;;;;;;;18.88;100.00;101643.22;5023085;28;20263;-48
2022/05/26 02:44:45;;;;;;;31.27;11.33;;;;;;;18.93;100.00;101658.78;5026543;28;20052;-50
2022/05/26 02:47:17;;;;;;;39.80;11.95;;;;;;;18.98;100.00;101648.09;5030875;28;20271;-52
2022/05/26 02:50:03;;;;;;;36.00;10.93;;;;;;;18.97;100.00;101649.13;5030882;28;20042;-51
2022/05/26 02:53:06;;;;;;;37.67;12.30;;;;;;;19.03;100.00;101659.06;5018539;28;20296;-50
2022/05/26 02:56:09;;;;;;;30.43;10.87;;;;;;;18.63;100.00;101654.19;5019019;28;20272;-49
2022/05/26 02:59:04;;;;;;;39.33;10.87;;;;;;;18.90;100.00;101661.94;5024899;28;20283;-51
2022/05/26 03:01:36;;;;;;;32.93;9.87;;;;;;;18.20;100.00;101656.00;5016354;28;20266;-49
2022/05/26 03:04:31;;;;;;;34.67;9.97;;;;;;;18.41;100.00;101657.41;5030906;28;20408;-52
2022/05/26 03:07:07;;;;;;;33.50;10.80;;;;;;;18.13;100.00;101666.91;5013989;28;20291;-49
2022/05/26 03:09:35;;;;;;;36.53;10.73;;;;;;;18.42;100.00;101666.38;5018023;28;20291;-47
2022/05/26 03:12:01;;;;;;;41.23;11.20;;;;;;;18.33;100.00;101665.84;5021601;28;20287;-50
2022/05/26 03:14:26;;;;;;;38.15;10.98;;;;;;;18.10;100.00;101672.78;5027544;28;20279;-47
2022/05/26 03:16:52;;;;;;;34.72;9.43;;;;;;;18.60;100.00;101676.34;5030593;28;20060;-52
2022/05/26 03:19:19;;;;;;;31.65;10.90;;;;;;;18.94;100.00;101668.56;5030711;28;20064;-47
2022/05/26 03:21:45;;;;;;;50.00;11.13;;;;;;;18.57;100.00;101665.97;5024628;28;20142;-48
2022/05/26 03:24:12;;;;;;;36.83;11.38;;;;;;;18.26;100.00;101665.91;5017147;28;20045;-48
2022/05/26 03:26:38;;;;;;;34.57;10.87;;;;;;;18.27;100.00;101664.06;5026014;28;20064;-51
2022/05/26 03:29:04;;;;;;;38.30;10.77;;;;;;;18.37;100.00;101677.88;5026159;28;20276;-52
2022/05/26 03:31:31;;;;;;;40.13;10.13;;;;;;;18.44;100.00;101684.03;5019106;28;20054;-48
2022/05/26 03:42:14;;;;;;;36.47;10.23;;;;;;;18.37;100.00;101686.00;5024264;28;20275;-52
2022/05/26 03:44:40;;;;;;;43.53;11.57;;;;;;;18.65;100.00;101689.19;5033737;28;20287;-49
2022/05/26 03:47:06;;;;;;;39.83;10.07;;;;;;;18.44;100.00;101691.34;5033828;28;20255;-50
2022/05/26 03:49:32;;;;;;;42.22;10.88;;;;;;;18.25;100.00;101688.63;5025724;28;20038;-51
2022/05/26 03:51:58;;;;;;;38.45;10.00;;;;;;;18.35;100.00;101688.09;5022141;28;20048;-50
2022/05/26 03:54:27;;;;;;;38.60;9.90;;;;;;;18.11;100.00;101695.28;5033707;28;20042;-51
2022/05/26 03:56:53;;;;;;;36.53;10.57;;;;;;;18.03;100.00;101699.09;5032204;28;20057;-53
2022/05/26 03:59:19;;;;;;;40.83;10.05;;;;;;;18.33;100.00;101699.16;5020723;28;20284;-51
2022/05/26 04:01:45;;;;;;;33.13;9.82;;;;;;;18.26;100.00;101703.00;5033699;28;20052;-49
2022/05/26 04:04:10;;;;;;;38.13;8.80;;;;;;;18.18;100.00;101706.84;5027120;28;20120;-51
2022/05/26 04:06:36;;;;;;;34.25;8.63;;;;;;;18.52;100.00;101696.44;5025986;28;20038;-52
2022/05/26 04:09:02;;;;;;;30.02;9.15;;;;;;;18.97;100.00;101707.91;5014472;28;20074;-51
2022/05/26 04:11:29;;;;;;;46.20;10.57;;;;;;;18.60;100.00;101711.53;5019964;28;20033;-52
2022/05/26 04:13:55;;;;;;;43.70;8.57;;;;;;;18.84;100.00;101709.78;5025861;28;20263;-51
2022/05/26 04:16:21;;;;;;;38.08;9.10;;;;;;;18.41;100.00;101714.28;5032424;28;20042;-51
2022/05/26 04:18:47;;;;;;;39.63;10.60;;;;;;;18.62;100.00;101717.56;5015792;28;20105;-49
2022/05/26 04:21:14;;;;;;;48.33;10.63;;;;;;;18.45;100.00;101718.19;5031887;28;20271;-51
2022/05/26 04:23:39;;;;;;;;;;;;;;;18.24;100.00;101721.38;5024431;28;20042;-54
2022/05/26 04:26:06;;;;;;;34.90;9.23;;;;;;;18.61;100.00;101721.31;5025389;28;19985;-52
2022/05/26 04:28:32;;;;;;;31.97;7.97;;;;;;;18.56;100.00;101724.72;5033107;28;20110;-48
2022/05/26 04:30:58;;;;;;;40.85;9.45;;;;;;;18.59;100.00;101726.16;5029375;28;20280;-51
2022/05/26 04:33:24;;;;;;;33.92;9.52;;;;;;;18.68;100.00;101722.06;5018080;28;20026;-50
2022/05/26 04:35:50;;;;;;;41.40;10.85;;;;;;;18.61;100.00;101734.88;5023733;28;20041;-50
2022/05/26 04:38:17;;;;;;;42.20;10.35;;;;;;;18.39;100.00;101740.75;5023956;28;20045;-52
2022/05/26 04:40:44;;;;;;;43.20;9.50;;;;;;;18.28;100.00;101744.22;5032585;28;20067;-46
2022/05/26 04:43:11;;;;;;;40.97;9.50;;;;;;;18.80;100.00;101740.28;5027637;28;20264;-51
2022/05/26 04:45:37;;;;;;;36.42;9.57;;;;;;;18.26;100.00;101752.56;5017003;28;20291;-47
2022/05/26 04:48:03;;;;;;;42.00;9.90;;;;;;;18.45;100.00;101749.84;5030354;28;20057;-52
2022/05/26 04:50:29;;;;;;;41.17;10.02;;;;;;;18.50;100.00;101755.41;5014168;28;20268;-52
2022/05/26 04:52:54;;;;;;;55.67;10.38;;;;;;;18.64;100.00;101753.38;5026550;28;20061;-52
2022/05/26 04:55:20;;;;;;;32.80;10.20;;;;;;;18.72;100.00;101758.50;5015656;28;20030;-50
2022/05/26 04:57:47;;;;;;;38.58;8.75;;;;;;;18.98;100.00;101764.66;5025370;28;20102;-52
2022/05/26 05:00:16;;;;;;;35.50;9.40;;;;;;;18.80;100.00;101770.06;5028113;28;20038;-51
2022/05/26 05:02:42;;;;;;;39.07;9.70;;;;;;;18.73;100.00;101784.53;5031307;28;20283;-50
2022/05/26 05:05:09;;;;;;;43.55;9.43;;;;;;;18.38;100.00;101781.63;5015360;28;20288;-50
2022/05/26 05:07:35;;;;;;;47.00;10.20;;;;;;;18.99;100.00;101782.56;5032714;28;20056;-50
2022/05/26 05:10:01;;;;;;;39.73;9.67;;;;;;;18.95;100.00;101786.78;5019302;28;20304;-51
2022/05/26 05:12:26;;;;;;;45.78;8.50;;;;;;;19.16;100.00;101788.16;5027148;28;20059;-52
2022/05/26 05:14:55;;;;;;;46.47;8.85;;;;;;;19.43;100.00;101786.97;5015334;28;20034;-52
2022/05/26 05:17:23;;;;;;;36.10;8.57;;;;;;;19.28;100.00;101792.81;5032589;28;20038;-51
2022/05/26 05:19:49;;;;;;;38.73;8.00;;;;;;;19.63;100.00;101792.91;5032377;28;20279;-50
2022/05/26 05:22:37;;;;;;;38.00;9.02;;;;;;;19.41;100.00;101794.50;5029312;28;20275;-52
2022/05/26 05:25:20;;;;;;;27.47;8.87;;;;;;;19.66;100.00;101796.22;5030006;28;20050;-51
2022/05/26 05:27:58;;;;;;;38.10;7.67;;;;;;;19.43;100.00;101804.06;5028588;28;20279;-49
2022/05/26 05:30:32;;;;;;;37.37;9.03;;;;;;;20.00;100.00;101799.22;5028663;28;20286;-51
2022/05/26 05:33:09;;;;;;;32.07;8.70;;;;;;;20.10;100.00;101804.91;5028937;28;20283;-49
2022/05/26 05:35:57;;;;;;;31.60;7.32;;;;;;;19.65;100.00;101805.41;5028072;28;20260;-48
2022/05/26 05:38:23;;;;;;;32.67;8.43;;;;;;;19.83;100.00;101808.00;5030554;28;20070;-51
2022/05/26 05:40:49;;;;;;;48.03;8.40;;;;;;;19.68;100.00;101808.47;5027898;28;20295;-49
2022/05/26 05:43:14;;;;;;;30.60;7.20;;;;;;;19.65;100.00;101811.66;5029210;28;20041;-53
2022/05/26 05:45:40;;;;;;;38.58;8.48;;;;;;;19.86;100.00;101823.84;5028852;28;20038;-52
2022/05/26 05:48:07;;;;;;;31.70;8.73;;;;;;;20.05;100.00;101821.06;5031635;28;20065;-51
2022/05/26 05:50:33;;;;;;;23.77;6.90;;;;;;;19.92;100.00;101817.53;5030443;28;20287;-50
2022/05/26 05:52:58;;;;;;;26.08;8.15;;;;;;;19.33;100.00;101820.88;5031938;28;20282;-47
2022/05/26 05:55:25;;;;;;;31.58;7.95;;;;;;;19.71;100.00;101821.56;5026148;28;20059;-50
2022/05/26 05:57:51;;;;;;;29.45;7.50;;;;;;;19.48;100.00;101822.34;5031746;28;20045;-47
2022/05/26 06:00:17;;;;;;;31.48;6.60;;;;;;;19.63;100.00;101830.91;5014481;28;20029;-50
2022/05/26 06:02:42;;;;;;;26.13;6.80;;;;;;;20.02;100.00;101826.94;5029293;28;20042;-52
2022/05/26 06:05:08;;;;;;;27.53;7.13;;;;;;;20.00;100.00;101821.78;5027171;28;20034;-50
2022/05/26 06:07:34;;;;;;;20.75;5.88;;;;;;;20.11;100.00;101833.72;5010311;28;20038;-50
2022/05/26 06:10:03;;;;;;;29.05;7.38;;;;;;;20.47;100.00;101834.50;5029178;28;20053;-46
2022/05/26 06:12:28;;;;;;;27.93;7.07;;;;;;;20.34;100.00;101835.59;5026454;28;20042;-49
2022/05/26 06:14:54;;;;;;;25.40;6.38;;;;;;;19.94;100.00;101841.69;5027429;28;20298;-51
2022/05/26 06:17:20;;;;;;;26.55;6.13;;;;;;;20.33;100.00;101838.56;5029625;28;20026;-48
2022/05/26 06:19:45;;;;;;;23.98;6.60;;;;;;;20.51;100.00;101839.47;5013808;28;20061;-54
2022/05/26 06:22:17;;;;;;;19.67;5.03;;;;;;;19.79;100.00;101844.84;5030695;28;20083;-48
2022/05/26 06:24:43;;;;;;;20.63;5.77;;;;;;;19.29;100.00;101835.97;5028308;28;20038;-48
2022/05/26 06:30:09;;;;;;;25.60;8.63;;;;;;;20.02;100.00;101862.25;4974183;28;20455;-51
2022/05/26 06:38:15;;;;;;;24.60;6.20;;;;;;;20.36;100.00;101865.22;5030066;28;20281;-50
2022/05/26 06:40:41;;;;;;;26.75;5.22;;;;;;;20.24;100.00;101864.41;5027965;28;20268;-52
2022/05/26 06:43:06;;;;;;;24.10;7.00;;;;;;;20.06;100.00;101869.69;5029713;28;20060;-51
2022/05/26 06:45:31;;;;;;;24.87;8.33;;;;;;;20.45;100.00;101874.66;5030550;28;20080;-52
2022/05/26 06:47:57;;;;;;;16.98;5.90;;;;;;;20.66;100.00;101866.16;5029084;28;20041;-47
2022/05/26 06:50:23;;;;;;;23.75;5.07;;;;;;;20.49;100.00;101885.91;5031391;28;20038;-52
2022/05/26 06:52:48;;;;;;;24.85;5.25;;;;;;;20.34;100.00;101873.59;5027570;28;20102;-53
2022/05/26 06:55:13;;;;;;;14.40;3.93;;;;;;;20.31;100.00;101884.13;5027468;28;20097;-53
2022/05/26 06:57:39;;;;;;;16.70;4.50;;;;;;;20.30;100.00;101883.28;5027739;28;20052;-49
2022/05/26 07:00:06;;;;;;;16.57;5.07;;;;;;;20.99;100.00;101881.84;5029047;28;20033;-52
2022/05/26 07:02:31;;;;;;;17.10;5.03;;;;;;;20.57;100.00;101882.00;5026365;28;20298;-51
2022/05/26 07:04:56;;;;;;;17.23;4.18;;;;;;;20.67;100.00;101887.66;5027071;28;20034;-52
2022/05/26 07:07:22;;;;;;;18.83;5.90;;;;;;;21.04;100.00;101887.38;5029898;28;20042;-51
2022/05/26 07:09:52;;;;;;;22.42;4.90;;;;;;;20.41;100.00;101881.66;5028529;28;20044;-53
2022/05/26 07:12:17;;;;;;;18.40;4.70;;;;;;;20.45;100.00;101899.13;5024157;28;20046;-53
2022/05/26 07:14:42;;;;;;;15.43;3.80;;;;;;;21.61;100.00;101904.78;5016719;28;20064;-53
2022/05/26 07:17:08;;;;;;;13.70;4.13;;;;;;;21.18;100.00;101912.41;5030557;28;20275;-50
2022/05/26 07:19:35;;;;;;;10.57;3.33;;;;;;;20.99;100.00;101921.78;5030839;28;20057;-51
2022/05/26 07:22:01;;;;;;;26.20;7.07;;;;;;;20.96;100.00;101906.78;5023958;28;20044;-52
2022/05/26 07:24:26;;;;;;;19.67;4.30;;;;;;;21.16;100.00;101916.44;5030887;28;20101;-47
2022/05/26 07:26:52;;;;;;;15.35;4.80;;;;;;;21.53;100.00;101910.63;5021266;28;20034;-52
2022/05/26 07:29:18;;;;;;;14.88;4.25;;;;;;;21.34;100.00;101910.81;5029113;28;20026;-51
2022/05/26 07:31:43;;;;;;;;;;;;;;;21.10;100.00;101931.00;5026074;28;20117;-49
2022/05/26 07:34:09;;;;;;;10.00;2.97;;;;;;;21.23;100.00;101921.75;5026449;28;19921;-51
2022/05/26 07:42:11;;;;;;;14.10;4.17;;;;;;;22.30;100.00;101924.78;5024038;28;20038;-50
2022/05/26 07:44:40;;;;;;;15.70;4.20;;;;;;;22.56;100.00;101927.06;5015601;28;20041;-47
2022/05/26 07:47:08;;;;;;;15.63;3.83;;;;;;;22.60;100.00;101920.03;5024537;28;20101;-47
2022/05/26 07:49:36;;;;;;;7.20;2.93;;;;;;;22.41;100.00;101925.75;5014845;28;20045;-49
2022/05/26 07:52:02;;;;;;;12.67;3.27;;;;;;;21.89;100.00;101937.72;5028866;28;20054;-48
2022/05/26 07:54:28;;;;;;;10.70;2.65;;;;;;;21.68;100.00;101933.78;5030008;28;20050;-51
2022/05/26 07:56:55;;;;;;;9.18;3.00;;;;;;;22.23;100.00;101929.53;5028606;28;20065;-48
2022/05/26 07:59:21;;;;;;;6.97;2.93;;;;;;;22.09;100.00;101929.06;5014162;28;20046;-50
2022/05/26 08:01:48;;;;;;;15.90;2.95;;;;;;;21.83;100.00;101931.34;5023889;28;20047;-50
2022/05/26 08:04:14;;;;;;;10.03;2.70;;;;;;;21.84;100.00;101934.91;5030383;28;20038;-47
2022/05/26 08:06:41;;;;;;;11.60;3.10;;;;;;;21.87;100.00;101954.28;5030001;28;20034;-52
2022/05/26 08:09:06;;;;;;;9.63;3.22;;;;;;;21.40;100.00;101936.25;5023011;28;20037;-51
2022/05/26 08:11:32;;;;;;;9.82;2.67;;;;;;;21.59;100.00;101925.97;5012878;28;20121;-53
2022/05/26 08:13:58;;;;;;;13.45;3.45;;;;;;;22.29;100.00;101930.47;5029220;28;20030;-48
2022/05/26 08:16:24;;;;;;;9.80;2.35;;;;;;;22.74;100.00;101931.44;5024829;28;20093;-51
2022/05/26 08:18:49;;;;;;;7.35;1.92;;;;;;;22.57;100.00;101945.91;5013817;28;20038;-52
2022/05/26 08:21:17;;;;;;;12.55;2.33;;;;;;;22.70;100.00;101941.19;5030321;28;20038;-50
2022/05/26 08:23:43;;;;;;;8.83;2.63;;;;;;;22.47;100.00;101946.59;5017862;28;20041;-49
2022/05/26 08:26:09;;;;;;;8.75;3.65;;;;;;;22.85;100.00;101938.69;5030515;28;20062;-50
2022/05/26 08:28:35;;;;;;;13.43;3.55;;;;;;;22.47;100.00;101948.47;5028306;28;20030;-50
2022/05/26 08:31:01;;;;;;;;;;;;;;;22.42;100.00;101954.66;5020956;28;20064;-48
2022/05/26 08:33:28;;;;;;;10.23;2.73;;;;;;;22.20;100.00;101957.28;5026491;28;19914;-52
2022/05/26 08:36:06;;;;;;;11.23;3.23;;;;;;;22.70;100.00;101952.09;5020159;28;20041;-51
2022/05/26 08:38:33;;;;;;;13.07;2.30;;;;;;;22.58;100.00;101968.53;5033425;28;20034;-53
2022/05/26 08:40:58;;;;;;;8.88;2.30;;;;;;;22.34;100.00;101947.72;5033456;28;20052;-52
2022/05/26 08:43:29;;;;;;;10.88;2.17;;;;;;;22.72;100.00;101958.94;5024680;28;20066;-51
2022/05/26 08:45:55;;;;;;;10.33;2.43;;;;;;;22.70;100.00;101963.84;5021128;28;20049;-51
2022/05/26 08:49:08;;;;;;;11.75;4.25;;;;;;;23.27;100.00;101964.59;5033691;28;20038;-50
2022/05/26 08:51:44;;;;;;;9.63;2.90;;;;;;;23.22;100.00;101972.69;5021235;28;20054;-49
2022/05/26 08:54:36;;;;;;;11.88;1.95;;;;;;;22.80;100.00;101984.13;5016951;28;20046;-49
2022/05/26 08:57:03;;;;;;;7.70;1.97;;;;;;;22.74;100.00;101989.50;5015901;28;20110;-51
2022/05/26 08:59:38;;;;;;;9.53;2.13;;;;;;;23.03;100.00;101975.72;5030484;28;20448;-50
2022/05/26 09:02:11;;;;;;;7.83;2.23;;;;;;;23.16;100.00;101969.06;5013813;28;20038;-49
2022/05/26 09:04:37;;;;;;;8.20;1.90;;;;;;;23.07;100.00;101986.97;5033041;28;20038;-54
2022/05/26 09:12:57;;;;;;;6.83;2.20;;;;;;;24.25;100.00;101983.13;5027887;28;20064;-53
2022/05/26 09:15:24;;;;;;;8.33;2.87;;;;;;;23.81;100.00;101995.81;5030346;28;20037;-51
2022/05/26 09:17:49;;;;;;;13.63;4.00;;;;;;;23.31;100.00;101993.06;5021498;28;20053;-49
2022/05/26 09:20:38;;;;;;;9.80;2.67;;;;;;;23.56;100.00;101991.72;5029648;28;20041;-49
2022/05/26 09:23:11;;;;;;;12.20;3.23;;;;;;;23.06;100.00;101993.50;5031993;28;20057;-50
2022/05/26 09:25:49;;;;;;;6.10;1.50;;;;;;;23.26;100.00;102003.88;5030563;28;20115;-48
2022/05/26 09:28:28;;;;;;;11.40;2.40;;;;;;;24.05;100.00;102017.38;5030185;28;20038;-49
2022/05/26 09:30:55;;;;;;;5.60;1.77;;;;;;;23.66;100.00;102004.66;5029875;28;20049;-49
2022/05/26 09:33:28;;;;;;;;;;;;;;;23.74;100.00;102006.91;5019489;28;20038;-51
2022/05/26 09:36:13;;;;;;;6.60;1.73;;;;;;;23.78;100.00;102007.25;5022090;28;19928;-53
2022/05/26 09:38:38;;;;;;;8.70;2.50;;;;;;;24.53;100.00;102017.50;5030444;28;20083;-52
2022/05/26 09:41:07;;;;;;;8.52;2.40;;;;;;;24.67;100.00;102004.19;5010247;28;20034;-52
2022/05/26 09:43:33;;;;;;;9.30;2.10;;;;;;;23.28;100.00;102031.75;5030513;28;20038;-54
2022/05/26 09:46:02;;;;;;;12.80;1.77;;;;;;;23.01;100.00;102021.53;5028023;28;20030;-53
2022/05/26 09:48:35;;;;;;;10.87;2.20;;;;;;;23.22;100.00;102023.72;5030865;28;20079;-52
2022/05/26 09:51:12;;;;;;;15.20;2.90;;;;;;;23.01;100.00;102032.44;5028192;28;20053;-52
2022/05/26 09:53:41;;;;;;;8.03;2.70;;;;;;;23.28;100.00;102033.66;5031442;28;20055;-53
2022/05/26 09:56:10;;;;;;;7.70;2.57;;;;;;;24.66;100.00;102027.16;5030938;28;20037;-54
2022/05/26 09:58:42;;;;;;;8.30;1.73;;;;;;;25.07;100.00;102021.19;5025951;28;20062;-52
2022/05/26 10:01:23;;;;;;;9.27;2.47;;;;;;;25.16;100.00;102025.03;5028645;28;20030;-54
2022/05/26 10:04:01;;;;;;;7.50;3.23;;;;;;;23.90;100.00;102042.59;5027823;28;20138;-54
2022/05/26 10:06:34;;;;;;;5.47;1.90;;;;;;;24.12;100.00;102039.84;5027555;28;20097;-53
2022/05/26 10:09:19;;;;;;;13.20;5.20;;;;;;;24.36;100.00;102039.50;5029074;28;20049;-53
2022/05/26 10:12:15;;;;;;;17.30;6.07;;;;;;;25.34;100.00;102031.16;5022892;28;20034;-52
2022/05/26 10:14:57;;;;;;;17.00;3.10;;;;;;;26.17;100.00;102037.75;5029336;28;20034;-50
2022/05/26 10:18:00;;;;;;;16.73;4.80;;;;;;;25.14;100.00;102029.97;5023778;28;20034;-52
2022/05/26 10:20:44;;;;;;;9.90;3.33;;;;;;;25.50;100.00;102040.28;5026683;28;20053;-54
2022/05/26 10:23:41;;;;;;;9.03;2.00;;;;;;;24.95;100.00;102036.97;5011885;28;20034;-50
2022/05/26 10:26:22;;;;;;;9.27;4.07;;;;;;;24.68;100.00;102032.38;5030852;28;20057;-52
2022/05/26 10:29:05;;;;;;;13.70;3.83;;;;;;;24.58;100.00;102038.59;5011811;28;20042;-52
2022/05/26 10:31:44;;;;;;;7.37;2.30;;;;;;;25.90;100.00;102048.91;5005175;28;20059;-51
2022/05/26 10:34:35;;;;;;;10.67;2.80;;;;;;;27.37;100.00;102045.81;4989896;28;20031;-50
2022/05/26 10:37:00;;;;;;;7.17;1.60;;;;;;;26.86;100.00;102044.88;4990124;28;20183;-53
2022/05/26 10:39:35;;;;;;;;;;;;;;;25.51;100.00;102036.47;4990562;28;20023;-49
2022/05/26 10:42:23;;;;;;;8.57;2.10;;;;;;;26.67;100.00;102048.16;4991380;28;20021;-54
2022/05/26 10:45:16;;;;;;;8.35;1.52;;;;;;;27.62;93.92;102042.97;4990602;28;20125;-52
2022/05/26 10:47:54;;;;;;;9.17;2.83;;;;;;;27.45;93.73;102061.72;4983976;28;20050;-50
2022/05/26 10:50:28;;;;;;;8.27;2.67;;;;;;;27.68;91.46;102057.53;4987884;28;20036;-48
2022/05/26 10:53:01;;;;;;;7.43;2.17;;;;;;;28.73;84.24;102066.72;4985807;28;20034;-50
2022/05/26 10:55:45;;;;;;;8.13;1.55;;;;;;;27.78;87.72;102056.66;4989136;28;20031;-49
2022/05/26 10:58:20;;;;;;;8.30;3.33;;;;;;;29.32;78.14;102059.22;4978426;28;20031;-50
2022/05/26 11:00:52;;;;;;;9.68;2.88;;;;;;;28.31;79.43;102068.97;4987686;28;20091;-50
2022/05/26 11:03:35;;;;;;;6.93;2.72;;;;;;;28.20;77.54;102057.22;4982320;28;20035;-52
2022/05/26 11:06:17;;;;;;;6.85;1.75;;;;;;;27.89;79.86;102058.22;4979419;28;20047;-50
2022/05/26 11:08:48;;;;;;;6.57;1.42;;;;;;;28.99;76.60;102048.00;4992133;28;20106;-51
2022/05/26 11:11:35;;;;;;;7.68;1.58;;;;;;;29.31;73.98;102046.56;4988698;28;20062;-52
2022/05/26 11:17:22;;;;;;;9.63;1.40;;;;;;;29.53;67.05;102047.97;4987630;28;20042;-52
2022/05/26 11:19:54;;;;;;;8.70;2.38;;;;;;;29.31;68.81;102045.72;4987983;28;20038;-51
2022/05/26 11:22:19;;;;;;;7.88;2.97;;;;;;;29.38;70.97;102057.19;4989284;28;20065;-51
2022/05/26 11:24:49;;;;;;;8.27;2.50;;;;;;;29.42;71.25;102043.69;5003703;28;20031;-52
2022/05/26 11:27:41;;;;;;;10.68;2.38;;;;;;;29.29;68.18;102062.53;4998470;28;20039;-52
2022/05/26 11:36:07;;;;;;;4.22;1.17;;;;;;;28.84;68.00;102050.94;4998477;28;21414;-53
2022/05/26 11:38:48;;;;;;;10.13;3.38;;;;;;;29.76;63.85;102053.72;5058387;28;20041;-53
2022/05/26 11:41:32;;;;;;;6.00;1.58;;;;;;;29.30;68.02;102044.91;5030425;28;20041;-52
2022/05/26 11:44:06;;;;;;;8.88;1.35;;;;;;;30.05;67.11;102038.97;5026387;28;20038;-50
2022/05/26 11:46:56;;;;;;;6.72;2.30;;;;;;;29.78;63.72;102040.44;5026839;28;20497;-53
2022/05/26 11:49:45;;;;;;;8.35;2.28;;;;;;;30.75;61.40;102042.78;5027750;28;20034;-54
2022/05/26 11:52:22;;;;;;;13.80;5.32;;;;;;;29.70;65.49;102047.44;4989674;28;20042;-50
2022/05/26 11:54:55;;;;;;;15.40;4.82;;;;;;;29.73;68.13;102043.25;5007403;28;20038;-53
2022/05/26 11:57:36;;;;;;;5.32;1.33;;;;;;;29.16;67.10;102038.47;5028146;28;20036;-53
2022/05/26 12:00:21;;;;;;;4.43;1.35;;;;;;;29.12;68.32;102034.66;5027473;28;20048;-50
2022/05/26 12:02:51;;;;;;;4.95;0.90;;;;;;;29.22;63.86;102064.03;5029385;28;20420;-52
2022/05/26 12:05:28;;;;;;;5.72;0.93;;;;;;;28.39;68.40;102059.28;5031053;28;20034;-51
2022/05/26 12:07:56;;;;;;;5.43;1.52;;;;;;;29.72;66.68;102038.88;5030856;28;20030;-51
2022/05/26 12:10:25;;;;;;;5.28;1.70;;;;;;;29.46;64.90;102036.47;5030519;28;20112;-50
2022/05/26 12:13:19;;;;;;;5.35;1.52;;;;;;;28.88;70.35;102027.22;5030405;28;20045;-53